Meath Environmental Platform

Observations for Trim Market St

Time AQI Temp °C Hum % Pres Pa CO μg/m³ H₂S μg/m³ NO μg/m³ NO₂ μg/m³ O₃ μg/m³ SO₂ μg/m³ PM1 μg/m³ PM2.5 μg/m³ PM10 μg/m³
Wednesday 26 August 2026
23:12 3 17.2 79 2,147,483,647 0.22 0 1.96 10.53 59.54 0 17.81 20.18 31.71
23:11 3 17.3 78 2,147,483,647 0.24 0 1.95 10.44 59.11 0 15.68 18.77 29.43
23:10 3 17.3 78 2,147,483,647 0.23 0 1.95 8.98 54.05 0 17.81 20.67 31.18
23:09 3 17.3 78 2,147,483,647 0.23 0 1.96 14.21 58.02 0 14.96 18.3 29.45
23:08 3 17.3 78 2,147,483,647 0.24 0 1.95 7.66 64.29 0 17.1 20.21 31.79
23:06 3 17.3 78 2,147,483,647 0.26 0 3.9 11.5 55.64 0 17.1 19.28 31.26
23:05 3 17.3 78 2,147,483,647 0.26 0 3.9 16.22 58.81 0 17.81 19.28 29.52
23:04 3 17.3 78 2,147,483,647 0.31 0 3.91 18.63 54.33 0 17.1 20.24 31.28
23:02 3 17.4 78 2,147,483,647 1.13 2.09 4.13 57.67 11.19 0.18 16.39 21.21 31.91
23:01 3 17.4 78 2,147,483,647 0.22 0 3.53 11.39 55.2 0 16.39 21.21 33.07
22:58 3 17.5 78 2,147,483,647 0.21 0 1.91 8.21 60.64 0 15.68 17.9 27.89
22:57 3 17.5 78 2,147,483,647 0.21 0 1.91 9.45 59.74 0 14.96 18.39 27.91
22:55 3 17.5 77 2,147,483,647 0.21 0 1.91 16.85 56.75 0 17.1 18.88 29.12
22:54 3 17.5 77 2,147,483,647 0.24 0 1.89 26.78 42.59 0 14.96 17.46 28.53
22:53 3 17.5 77 2,147,483,647 0.22 0 1.89 8.11 68.48 0 17.1 19.84 31.48
22:51 3 17.5 77 2,147,483,647 0.2 0 1.89 8.51 61.81 0 15.68 18.43 29.75
22:49 3 17.6 77 2,147,483,647 0.19 0 1.89 9.76 60.61 0 16.39 18.43 29.77
22:47 3 17.6 77 2,147,483,647 0.23 0 1.89 11.41 58.23 0 16.39 19.41 29.81
22:43 3 17.7 77 2,211 0.21 0 1.87 20.78 56.18 0 14.96 18.47 28.68
22:36 3 17.7 76 9,914 0.2 0 1.87 14.14 58.13 0 15.68 19.01 29.4